Time;durP1;ratioP1;P1;durP2;ratioP2;P2;SDS_P1;SDS_P2;PMS_P1;PMS_P2;Temp;Humidity;BMP_temperature;BMP_pressure;BME280_temperature;BME280_humidity;BME280_pressure;Samples;Min_cycle;Max_cycle;Signal;HPM_P1;HPM_P2
2023/09/26 00:00:31;;;;;;;4.73;4.10;;;14.20;99.90;;;;;;5052264;28;20190;-71
2023/09/26 00:02:57;;;;;;;9.30;5.00;;;14.20;99.90;;;;;;5052256;28;20203;-71
2023/09/26 00:05:23;;;;;;;6.87;5.10;;;14.20;99.90;;;;;;5050882;28;20439;-71
2023/09/26 00:07:49;;;;;;;4.83;4.27;;;14.30;99.90;;;;;;5052163;28;20205;-71
2023/09/26 00:10:16;;;;;;;4.03;3.67;;;14.30;99.90;;;;;;5052106;28;20415;-71
2023/09/26 00:12:42;;;;;;;5.13;3.70;;;14.20;99.90;;;;;;5052057;28;20432;-71
2023/09/26 00:15:08;;;;;;;5.53;4.10;;;14.00;99.90;;;;;;5051911;28;20959;-71
2023/09/26 00:17:34;;;;;;;11.80;5.20;;;13.80;99.90;;;;;;5050719;28;20469;-72
2023/09/26 00:20:04;;;;;;;8.80;5.80;;;13.60;99.90;;;;;;5050722;28;20431;-71
2023/09/26 00:22:30;;;;;;;9.10;5.73;;;13.50;99.90;;;;;;5050426;28;20453;-71
2023/09/26 00:24:56;;;;;;;7.90;5.70;;;13.30;99.90;;;;;;5050526;28;20436;-71
2023/09/26 00:27:21;;;;;;;9.60;5.80;;;13.20;99.90;;;;;;5051797;28;20421;-71
2023/09/26 00:29:47;;;;;;;9.03;5.50;;;13.20;99.90;;;;;;5051723;28;20176;-71
2023/09/26 00:32:15;;;;;;;7.30;5.77;;;13.10;99.90;;;;;;5051766;28;20179;-71
2023/09/26 00:34:40;;;;;;;9.20;5.83;;;12.90;99.90;;;;;;5050636;28;20438;-71
2023/09/26 00:37:06;;;;;;;6.43;5.07;;;12.90;99.90;;;;;;5050339;28;20940;-71
2023/09/26 00:39:35;;;;;;;8.93;5.57;;;12.90;99.90;;;;;;5051565;28;20198;-71
2023/09/26 00:42:00;;;;;;;11.50;4.93;;;12.80;99.90;;;;;;5051614;28;20690;-71
2023/09/26 00:44:26;;;;;;;7.00;5.20;;;12.70;99.90;;;;;;5051390;28;20466;-71
2023/09/26 00:46:52;;;;;;;8.40;5.10;;;12.60;99.90;;;;;;5050271;28;20272;-71
2023/09/26 00:49:17;;;;;;;5.77;5.17;;;12.40;99.90;;;;;;5051574;28;20177;-71
2023/09/26 00:51:43;;;;;;;7.50;6.10;;;12.40;99.90;;;;;;5033502;28;20432;-71
2023/09/26 00:54:10;;;;;;;8.80;6.00;;;12.30;99.90;;;;;;5051390;28;20298;-71
2023/09/26 00:56:38;;;;;;;6.27;5.40;;;12.30;99.90;;;;;;5050783;28;20209;-71
2023/09/26 00:59:04;;;;;;;6.60;5.50;;;12.20;99.90;;;;;;5051313;28;20457;-71
2023/09/26 01:01:31;;;;;;;6.40;5.73;;;12.20;99.90;;;;;;5051352;28;20424;-71
2023/09/26 01:03:57;;;;;;;6.10;5.10;;;12.10;99.90;;;;;;5049907;28;20465;-71
2023/09/26 01:06:23;;;;;;;8.73;6.00;;;12.10;99.90;;;;;;5049892;28;20461;-71
2023/09/26 01:08:49;;;;;;;6.97;5.63;;;12.00;99.90;;;;;;5049972;28;20451;-71
2023/09/26 01:11:15;;;;;;;7.60;5.50;;;11.90;99.90;;;;;;5051253;28;20187;-71
2023/09/26 01:13:41;;;;;;;7.67;5.90;;;11.90;99.90;;;;;;5051238;28;20217;-71
2023/09/26 01:16:18;;;;;;;10.07;6.53;;;11.80;99.90;;;;;;5049932;28;20814;-71
2023/09/26 01:18:45;;;;;;;6.70;6.07;;;11.80;99.90;;;;;;5051222;28;20182;-71
2023/09/26 01:21:11;;;;;;;10.10;6.50;;;11.70;99.90;;;;;;5051102;28;20415;-71
2023/09/26 01:23:39;;;;;;;11.07;7.23;;;11.60;99.90;;;;;;5051148;28;20581;-71
2023/09/26 01:26:05;;;;;;;9.00;6.13;;;11.50;99.90;;;;;;5051011;28;20477;-71
2023/09/26 01:28:31;;;;;;;11.37;7.40;;;11.50;99.90;;;;;;5049896;28;20453;-71
2023/09/26 01:30:57;;;;;;;10.10;7.30;;;11.40;99.90;;;;;;5050971;28;20273;-71
2023/09/26 01:33:23;;;;;;;8.53;6.70;;;11.40;99.90;;;;;;5049809;28;20527;-71
2023/09/26 01:35:51;;;;;;;10.33;6.93;;;11.30;99.90;;;;;;5050867;28;20234;-71
2023/09/26 01:38:19;;;;;;;8.33;7.03;;;11.30;99.90;;;;;;5051058;28;20176;-71
2023/09/26 01:40:45;;;;;;;10.10;7.43;;;11.20;99.90;;;;;;5051057;28;20431;-71
2023/09/26 01:43:11;;;;;;;12.40;6.60;;;11.30;99.90;;;;;;5049670;28;20461;-71
2023/09/26 01:45:37;;;;;;;9.23;6.57;;;11.30;99.90;;;;;;5049645;28;20942;-71
2023/09/26 01:48:05;;;;;;;8.83;7.17;;;11.30;99.90;;;;;;5049712;28;20261;-71
2023/09/26 01:50:34;;;;;;;13.43;9.53;;;11.30;99.90;;;;;;5049581;28;20423;-71
2023/09/26 01:52:59;;;;;;;14.40;7.47;;;11.20;99.90;;;;;;5051330;28;20469;-71
2023/09/26 01:55:25;;;;;;;8.80;7.10;;;11.30;99.90;;;;;;5050627;28;20546;-71
2023/09/26 01:57:51;;;;;;;8.30;7.17;;;11.30;99.90;;;;;;5032973;28;20195;-71
2023/09/26 02:00:19;;;;;;;9.63;7.70;;;11.30;99.90;;;;;;5050928;28;20182;-71
2023/09/26 02:02:46;;;;;;;8.90;6.93;;;11.30;99.90;;;;;;5050769;28;20205;-71
2023/09/26 02:05:14;;;;;;;8.60;7.20;;;11.20;99.90;;;;;;5050626;28;20825;-71
2023/09/26 02:07:40;;;;;;;7.47;6.30;;;11.20;99.90;;;;;;5050016;28;20508;-71
2023/09/26 02:10:07;;;;;;;10.63;8.37;;;11.10;99.90;;;;;;5054287;28;20509;-71
2023/09/26 02:12:35;;;;;;;14.37;9.10;;;11.10;99.90;;;;;;5036384;28;20484;-71
2023/09/26 02:15:03;;;;;;;11.10;6.63;;;11.00;99.90;;;;;;5054256;28;20824;-71
2023/09/26 02:17:29;;;;;;;8.63;7.00;;;11.10;99.90;;;;;;5052961;28;20425;-71
2023/09/26 02:19:55;;;;;;;8.93;7.60;;;11.10;99.90;;;;;;5036470;28;20413;-71
2023/09/26 02:22:21;;;;;;;8.03;7.23;;;11.10;99.90;;;;;;5052937;28;20964;-71
2023/09/26 02:24:51;;;;;;;10.70;7.90;;;11.10;99.90;;;;;;5053938;28;20561;-71
2023/09/26 02:27:17;;;;;;;8.60;6.90;;;11.10;99.90;;;;;;5054132;28;20251;-71
2023/09/26 02:29:44;;;;;;;9.20;7.27;;;11.00;99.90;;;;;;5054288;28;20502;-71
2023/09/26 02:32:10;;;;;;;10.67;8.60;;;11.00;99.90;;;;;;5053967;28;20700;-71
2023/09/26 02:34:36;;;;;;;15.33;7.10;;;10.90;99.90;;;;;;5036034;28;20536;-71
2023/09/26 02:37:01;;;;;;;10.90;6.90;;;10.90;99.90;;;;;;5052590;28;20192;-71
2023/09/26 02:39:27;;;;;;;9.10;7.43;;;10.90;99.90;;;;;;5053732;28;20427;-71
2023/09/26 02:41:52;;;;;;;12.63;8.37;;;10.80;99.90;;;;;;5053804;28;20191;-70
2023/09/26 02:44:18;;;;;;;11.93;7.23;;;10.80;99.90;;;;;;5052412;28;20279;-71
2023/09/26 02:46:44;;;;;;;9.13;7.30;;;10.70;99.90;;;;;;5052540;28;20191;-71
2023/09/26 02:49:09;;;;;;;11.13;8.60;;;10.70;99.90;;;;;;5052509;28;20210;-71
2023/09/26 02:51:35;;;;;;;12.90;8.83;;;10.70;99.90;;;;;;5053706;28;20238;-71
2023/09/26 02:54:00;;;;;;;9.73;8.13;;;10.70;99.90;;;;;;5053480;28;20184;-70
2023/09/26 02:56:26;;;;;;;14.60;8.67;;;10.70;99.90;;;;;;5053572;28;20197;-71
2023/09/26 02:58:52;;;;;;;10.57;8.20;;;10.70;99.90;;;;;;5052189;28;20566;-71
2023/09/26 03:01:19;;;;;;;14.20;8.63;;;10.70;99.90;;;;;;5052226;28;20731;-71
2023/09/26 03:03:45;;;;;;;13.20;8.73;;;10.70;99.90;;;;;;5053276;28;20462;-71
2023/09/26 03:06:11;;;;;;;13.20;9.93;;;10.70;99.90;;;;;;5053435;28;20943;-71
2023/09/26 03:08:36;;;;;;;10.00;8.03;;;10.70;99.90;;;;;;5052241;28;20176;-71
2023/09/26 03:11:03;;;;;;;14.00;7.40;;;10.70;99.90;;;;;;5053334;28;20268;-71
2023/09/26 03:13:37;;;;;;;9.17;8.03;;;10.60;99.90;;;;;;5053290;28;20183;-71
2023/09/26 03:16:04;;;;;;;12.40;7.80;;;10.50;99.90;;;;;;5053229;28;20426;-71
2023/09/26 03:18:30;;;;;;;8.10;7.30;;;10.60;99.90;;;;;;5051506;28;20474;-71
2023/09/26 03:20:56;;;;;;;10.90;8.03;;;10.60;99.90;;;;;;5053085;28;20427;-71
2023/09/26 03:23:22;;;;;;;16.47;8.03;;;10.60;99.90;;;;;;5051673;28;20219;-71
2023/09/26 03:25:48;;;;;;;10.93;8.17;;;10.60;99.90;;;;;;5051727;28;20445;-71
2023/09/26 03:28:14;;;;;;;16.00;8.20;;;10.50;99.90;;;;;;5052927;28;20414;-71
2023/09/26 03:30:41;;;;;;;13.63;8.57;;;10.60;99.90;;;;;;5052882;28;20927;-71
2023/09/26 03:33:06;;;;;;;17.13;9.20;;;10.60;99.90;;;;;;5051725;28;20653;-72
2023/09/26 03:35:32;;;;;;;11.30;9.37;;;10.50;99.90;;;;;;5052781;28;20438;-71
2023/09/26 03:37:57;;;;;;;11.83;9.57;;;10.50;99.90;;;;;;5051425;28;20230;-70
2023/09/26 03:40:23;;;;;;;12.00;9.53;;;10.40;99.90;;;;;;5034927;28;20185;-70
2023/09/26 03:42:49;;;;;;;17.27;10.90;;;10.40;99.90;;;;;;5051336;28;20213;-70
2023/09/26 03:45:14;;;;;;;17.20;10.40;;;10.50;99.90;;;;;;5052595;28;20230;-73
2023/09/26 03:47:40;;;;;;;13.53;9.60;;;10.50;99.90;;;;;;5052559;28;20177;-72
2023/09/26 03:50:06;;;;;;;17.83;10.00;;;10.60;99.90;;;;;;5052544;28;20234;-71
2023/09/26 03:52:32;;;;;;;14.87;9.43;;;10.60;99.90;;;;;;5051069;28;20192;-71
2023/09/26 03:54:57;;;;;;;11.10;8.80;;;10.50;99.90;;;;;;5051121;28;20509;-72
2023/09/26 03:57:23;;;;;;;12.90;9.83;;;10.50;99.90;;;;;;5051116;28;20227;-71
2023/09/26 03:59:49;;;;;;;18.00;9.70;;;10.50;99.90;;;;;;5052366;28;20194;-71
2023/09/26 04:02:15;;;;;;;14.90;9.27;;;10.50;99.90;;;;;;5052766;28;20183;-71
2023/09/26 04:04:41;;;;;;;13.57;8.47;;;10.50;99.90;;;;;;5052145;28;20472;-71
2023/09/26 04:07:06;;;;;;;11.00;8.93;;;10.40;99.90;;;;;;5052202;28;20429;-72
2023/09/26 04:09:35;;;;;;;15.80;10.70;;;10.40;99.90;;;;;;5052216;28;20203;-71
2023/09/26 04:12:03;;;;;;;16.10;11.70;;;10.30;99.90;;;;;;5052118;28;20199;-71
2023/09/26 04:14:29;;;;;;;15.93;10.57;;;10.40;99.90;;;;;;5051975;28;20439;-72
2023/09/26 04:16:55;;;;;;;15.37;10.97;;;10.30;99.90;;;;;;5052092;28;20457;-71
2023/09/26 04:19:20;;;;;;;16.03;10.20;;;10.30;99.90;;;;;;5052021;28;20892;-71
2023/09/26 04:21:46;;;;;;;11.67;9.80;;;10.30;99.90;;;;;;5051933;28;20270;-72
2023/09/26 04:24:11;;;;;;;14.03;10.27;;;10.30;99.90;;;;;;5050511;28;20642;-71
2023/09/26 04:26:37;;;;;;;16.80;12.23;;;10.30;99.90;;;;;;5051887;28;20217;-71
2023/09/26 04:29:04;;;;;;;14.83;10.90;;;10.20;99.90;;;;;;5050516;28;20239;-71
2023/09/26 04:31:30;;;;;;;16.93;10.40;;;10.20;99.90;;;;;;5049753;28;20273;-72
2023/09/26 04:33:56;;;;;;;15.47;11.50;;;10.20;99.90;;;;;;5050390;28;20515;-71
2023/09/26 04:36:22;;;;;;;16.30;10.53;;;10.20;99.90;;;;;;5050381;28;20196;-71
2023/09/26 04:38:48;;;;;;;14.53;11.50;;;10.20;99.90;;;;;;5051703;28;20427;-72
2023/09/26 04:41:14;;;;;;;14.87;11.10;;;10.30;99.90;;;;;;5051610;28;20190;-72
2023/09/26 04:43:40;;;;;;;15.30;10.97;;;10.30;99.90;;;;;;5051519;28;20215;-71
2023/09/26 04:46:12;;;;;;;15.50;11.00;;;10.20;99.90;;;;;;5051487;28;20526;-71
2023/09/26 04:48:42;;;;;;;17.17;12.77;;;10.20;99.90;;;;;;5051560;28;20202;-71
2023/09/26 04:51:13;;;;;;;15.27;10.70;;;10.20;99.90;;;;;;5050159;28;20813;-71
2023/09/26 04:53:39;;;;;;;16.30;12.00;;;10.20;99.90;;;;;;5051474;28;20575;-71
2023/09/26 04:56:06;;;;;;;13.33;10.63;;;10.20;99.90;;;;;;5051205;28;20470;-72
2023/09/26 04:58:32;;;;;;;15.60;11.50;;;10.20;99.90;;;;;;5051707;28;20850;-71
2023/09/26 05:01:02;;;;;;;16.83;11.43;;;10.30;99.90;;;;;;5049910;28;20432;-71
2023/09/26 05:03:29;;;;;;;18.40;10.97;;;10.10;99.90;;;;;;5050037;28;20837;-71
2023/09/26 05:05:54;;;;;;;14.07;10.63;;;10.10;99.90;;;;;;5051169;28;20865;-72
2023/09/26 05:08:20;;;;;;;17.93;10.80;;;10.10;99.90;;;;;;5051378;28;20515;-71
2023/09/26 05:10:48;;;;;;;13.87;9.50;;;10.20;99.90;;;;;;5051367;28;20176;-72
2023/09/26 05:13:14;;;;;;;17.33;11.30;;;10.10;99.90;;;;;;5049919;28;20717;-72
2023/09/26 05:15:40;;;;;;;13.77;10.10;;;10.10;99.90;;;;;;5051189;28;20437;-72
2023/09/26 05:18:05;;;;;;;19.53;10.87;;;10.00;99.90;;;;;;5051361;28;20422;-71
2023/09/26 05:20:31;;;;;;;18.43;11.40;;;10.10;99.90;;;;;;5051458;28;20670;-71
2023/09/26 05:22:59;;;;;;;21.40;12.80;;;10.20;99.90;;;;;;5049799;28;20261;-71
2023/09/26 05:25:25;;;;;;;16.73;11.90;;;10.20;99.90;;;;;;5051025;28;20331;-71
2023/09/26 05:27:50;;;;;;;19.03;13.50;;;10.20;99.90;;;;;;5051406;28;20509;-71
2023/09/26 05:30:16;;;;;;;18.33;12.97;;;10.30;99.90;;;;;;5049924;28;20185;-72
2023/09/26 05:32:42;;;;;;;16.60;12.73;;;10.30;99.90;;;;;;5033278;28;20191;-71
2023/09/26 05:35:09;;;;;;;18.27;13.40;;;10.40;99.90;;;;;;5050962;28;20214;-71
2023/09/26 05:37:35;;;;;;;14.07;11.33;;;10.30;99.90;;;;;;5051045;28;20550;-72
2023/09/26 05:40:06;;;;;;;16.50;11.33;;;10.30;99.90;;;;;;5051097;28;20428;-72
2023/09/26 05:42:36;;;;;;;16.83;11.90;;;10.10;99.90;;;;;;5051908;28;20431;-71
2023/09/26 05:45:09;;;;;;;18.60;12.87;;;10.10;99.90;;;;;;5054847;28;20830;-71
2023/09/26 05:47:35;;;;;;;17.47;12.63;;;10.00;99.90;;;;;;5036970;28;20945;-71
2023/09/26 05:50:03;;;;;;;17.30;12.67;;;10.00;99.90;;;;;;5053575;28;20431;-71
2023/09/26 05:52:29;;;;;;;22.10;14.07;;;10.00;99.90;;;;;;5054846;28;20416;-72
2023/09/26 05:54:54;;;;;;;18.93;13.57;;;10.00;99.90;;;;;;5054733;28;20980;-71
2023/09/26 05:57:20;;;;;;;20.97;13.47;;;10.10;99.90;;;;;;5054643;28;20195;-71
2023/09/26 05:59:46;;;;;;;21.00;15.40;;;10.20;99.90;;;;;;5053497;28;20261;-71
2023/09/26 06:02:13;;;;;;;22.03;14.30;;;10.10;99.90;;;;;;5036643;28;20195;-71
2023/09/26 06:04:43;;;;;;;20.67;13.80;;;10.50;99.90;;;;;;5054431;28;20474;-72
2023/09/26 06:07:09;;;;;;;22.90;14.10;;;10.90;99.90;;;;;;5054504;28;20406;-72
2023/09/26 06:09:36;;;;;;;17.67;11.13;;;11.40;99.90;;;;;;5053426;28;20811;-72
2023/09/26 06:12:05;;;;;;;12.07;10.70;;;11.80;99.90;;;;;;5054815;28;20534;-72
2023/09/26 06:14:34;;;;;;;12.13;10.30;;;12.50;99.90;;;;;;5054203;28;20468;-72
2023/09/26 06:17:00;;;;;;;11.27;10.07;;;12.70;99.90;;;;;;5054443;28;20447;-72
2023/09/26 06:19:26;;;;;;;13.20;10.03;;;13.00;99.90;;;;;;5054264;28;20989;-72
2023/09/26 06:21:51;;;;;;;15.33;10.27;;;12.90;99.90;;;;;;5054204;28;20427;-71
2023/09/26 06:24:17;;;;;;;16.60;11.73;;;12.80;99.90;;;;;;5052898;28;20219;-71
2023/09/26 06:26:42;;;;;;;13.73;11.10;;;12.60;99.90;;;;;;5054150;28;20562;-71
2023/09/26 06:29:08;;;;;;;11.20;9.53;;;12.40;99.90;;;;;;5054062;28;20607;-71
2023/09/26 06:31:35;;;;;;;16.93;11.80;;;12.20;99.90;;;;;;5054164;28;20608;-71
2023/09/26 06:34:01;;;;;;;13.80;11.30;;;12.10;99.90;;;;;;5053934;28;20245;-71
2023/09/26 06:36:31;;;;;;;14.07;10.57;;;12.00;99.90;;;;;;5054143;28;20418;-72
2023/09/26 06:38:57;;;;;;;13.83;11.33;;;12.00;99.90;;;;;;5052867;28;20417;-71
2023/09/26 06:41:24;;;;;;;14.87;11.80;;;11.80;99.90;;;;;;5053901;28;20424;-71
2023/09/26 06:43:49;;;;;;;14.47;11.23;;;11.90;99.90;;;;;;5053598;28;20529;-71
2023/09/26 06:46:15;;;;;;;17.67;12.10;;;11.90;99.90;;;;;;5053812;28;20916;-71
2023/09/26 06:48:43;;;;;;;16.10;11.87;;;11.80;99.90;;;;;;5052398;28;20268;-71
2023/09/26 06:51:09;;;;;;;20.97;13.53;;;11.70;99.90;;;;;;5053762;28;20264;-72
2023/09/26 06:53:36;;;;;;;15.53;12.30;;;11.70;99.90;;;;;;5051478;28;21019;-71
2023/09/26 06:56:07;;;;;;;12.90;11.00;;;11.90;99.90;;;;;;5052171;28;20475;-71
2023/09/26 06:58:34;;;;;;;15.50;12.13;;;11.80;99.90;;;;;;5035572;28;20444;-71
2023/09/26 07:01:00;;;;;;;20.03;12.73;;;11.80;99.90;;;;;;5053650;28;20452;-71
2023/09/26 07:03:27;;;;;;;18.53;12.73;;;11.80;99.90;;;;;;5052125;28;21008;-72
2023/09/26 07:05:54;;;;;;;18.20;12.90;;;11.90;99.90;;;;;;5051981;28;20534;-72
2023/09/26 07:08:19;;;;;;;16.90;13.33;;;11.90;99.90;;;;;;5052130;28;20477;-71
2023/09/26 07:10:46;;;;;;;19.43;12.90;;;12.00;99.90;;;;;;5053253;28;20406;-70
2023/09/26 07:13:12;;;;;;;16.77;13.37;;;12.00;99.90;;;;;;5051993;28;20187;-72
2023/09/26 07:15:37;;;;;;;18.73;13.37;;;12.00;99.90;;;;;;5053180;28;20433;-72
2023/09/26 07:18:06;;;;;;;20.27;13.60;;;12.10;99.90;;;;;;5052096;28;20760;-71
2023/09/26 07:20:33;;;;;;;18.63;13.90;;;12.20;99.90;;;;;;5035818;28;20189;-72
2023/09/26 07:23:00;;;;;;;16.63;13.53;;;12.30;99.90;;;;;;5053129;28;20582;-72
2023/09/26 07:25:26;;;;;;;17.23;13.50;;;12.40;99.90;;;;;;5051868;28;20434;-71
2023/09/26 07:27:51;;;;;;;22.40;13.60;;;12.50;99.90;;;;;;5051896;28;20933;-72
2023/09/26 07:30:17;;;;;;;18.93;13.53;;;12.60;99.90;;;;;;5051733;28;20178;-71
2023/09/26 07:32:43;;;;;;;17.03;12.50;;;12.80;99.90;;;;;;5052875;28;20183;-72
2023/09/26 07:35:09;;;;;;;18.50;12.70;;;13.00;99.90;;;;;;5052853;28;20195;-72
2023/09/26 07:37:34;;;;;;;17.60;13.40;;;13.10;99.90;;;;;;5052829;28;20413;-72
2023/09/26 07:40:03;;;;;;;18.93;13.40;;;13.20;99.90;;;;;;5034883;28;20187;-71
2023/09/26 07:42:28;;;;;;;19.17;12.83;;;13.30;99.90;;;;;;5051342;28;20179;-72
2023/09/26 07:44:59;;;;;;;24.50;12.20;;;13.40;99.90;;;;;;5052592;28;20622;-71
2023/09/26 07:47:25;;;;;;;15.47;12.13;;;13.50;99.90;;;;;;5052730;28;20654;-72
2023/09/26 07:49:51;;;;;;;19.97;13.03;;;13.50;99.90;;;;;;5052729;28;20421;-72
2023/09/26 07:52:17;;;;;;;15.57;12.27;;;13.70;99.90;;;;;;5052649;28;20179;-74
2023/09/26 07:54:43;;;;;;;16.10;12.53;;;13.70;99.90;;;;;;5034648;28;20206;-72
2023/09/26 07:57:08;;;;;;;16.90;11.63;;;13.80;99.90;;;;;;5052458;28;20469;-72
2023/09/26 07:59:34;;;;;;;16.07;12.10;;;13.90;99.90;;;;;;5052406;28;20265;-72
2023/09/26 08:02:00;;;;;;;16.97;11.40;;;14.00;99.90;;;;;;5052441;28;20289;-72
2023/09/26 08:04:25;;;;;;;18.67;11.63;;;14.10;99.90;;;;;;5052100;28;20219;-72
2023/09/26 08:06:51;;;;;;;14.00;10.67;;;14.20;99.90;;;;;;5051383;28;20173;-72
2023/09/26 08:09:16;;;;;;;21.27;12.00;;;14.30;99.90;;;;;;5050994;28;20174;-72
2023/09/26 08:11:43;;;;;;;15.03;10.07;;;14.50;99.90;;;;;;5052177;28;20712;-72
2023/09/26 08:14:09;;;;;;;12.10;10.07;;;14.60;99.90;;;;;;5050906;28;20430;-72
2023/09/26 08:16:34;;;;;;;13.10;10.10;;;14.80;99.90;;;;;;5052129;28;20179;-72
2023/09/26 08:19:00;;;;;;;14.70;9.77;;;14.90;99.90;;;;;;5050857;28;20189;-72
2023/09/26 08:21:26;;;;;;;10.60;9.50;;;15.10;99.90;;;;;;5034195;28;20681;-72
2023/09/26 08:23:53;;;;;;;16.60;10.57;;;15.20;99.90;;;;;;5051769;28;20307;-72
2023/09/26 08:26:19;;;;;;;12.77;10.50;;;15.40;99.90;;;;;;5051870;28;20492;-72
2023/09/26 08:28:45;;;;;;;16.47;10.37;;;15.50;99.90;;;;;;5050443;28;20932;-72
2023/09/26 08:31:15;;;;;;;15.63;11.40;;;15.60;99.90;;;;;;5051826;28;20258;-72
2023/09/26 08:33:43;;;;;;;16.20;11.87;;;15.80;99.90;;;;;;5051913;28;20791;-72
2023/09/26 08:36:16;;;;;;;11.70;9.43;;;15.80;99.90;;;;;;5050480;28;20801;-72
2023/09/26 08:38:47;;;;;;;13.07;10.97;;;16.00;99.90;;;;;;5050345;28;20414;-72
2023/09/26 08:41:13;;;;;;;12.73;11.33;;;16.10;99.90;;;;;;5051671;28;20456;-71
2023/09/26 08:43:39;;;;;;;16.20;11.30;;;16.20;99.90;;;;;;5051499;28;21030;-71
2023/09/26 08:46:06;;;;;;;11.87;9.70;;;16.40;99.90;;;;;;5050304;28;20469;-71
2023/09/26 08:48:33;;;;;;;11.40;9.63;;;16.50;99.90;;;;;;5050193;28;20214;-71
2023/09/26 08:50:59;;;;;;;9.90;8.50;;;16.80;99.90;;;;;;5051510;28;20437;-72
2023/09/26 08:53:25;;;;;;;10.90;8.77;;;16.90;99.90;;;;;;5051423;28;20940;-72
2023/09/26 08:55:52;;;;;;;8.70;7.80;;;16.90;99.90;;;;;;5049981;28;20220;-71
2023/09/26 08:58:20;;;;;;;11.73;9.87;;;17.10;99.90;;;;;;5050062;28;20427;-72
2023/09/26 09:00:46;;;;;;;11.53;8.60;;;17.30;99.90;;;;;;5051426;28;20921;-72
2023/09/26 09:03:13;;;;;;;10.33;8.60;;;17.50;99.90;;;;;;5049972;28;20471;-72
2023/09/26 09:05:40;;;;;;;8.93;7.67;;;17.80;99.90;;;;;;5051243;28;20436;-72
2023/09/26 09:08:16;;;;;;;11.00;7.40;;;17.90;99.90;;;;;;5051253;28;20489;-72
2023/09/26 09:10:51;;;;;;;10.20;7.40;;;18.30;99.90;;;;;;5051354;28;20411;-72
2023/09/26 09:13:35;;;;;;;10.57;7.07;;;18.80;99.90;;;;;;5051285;28;20421;-72
2023/09/26 09:16:24;;;;;;;10.43;6.47;;;19.30;99.90;;;;;;5051081;28;20436;-72
2023/09/26 09:18:52;;;;;;;7.57;6.10;;;19.90;99.90;;;;;;5051246;28;20475;-72
2023/09/26 09:21:20;;;;;;;12.83;7.17;;;20.40;99.90;;;;;;5033489;28;20818;-72
2023/09/26 09:23:46;;;;;;;11.07;6.90;;;20.70;99.90;;;;;;5049571;28;21002;-72
2023/09/26 09:26:12;;;;;;;11.43;5.60;;;21.00;99.90;;;;;;5051177;28;20420;-72
2023/09/26 09:28:38;;;;;;;8.03;5.83;;;21.60;99.90;;;;;;5051192;28;20794;-72
2023/09/26 09:31:03;;;;;;;9.80;6.13;;;22.00;99.90;;;;;;5051073;28;20287;-72
2023/09/26 09:33:31;;;;;;;10.13;6.00;;;22.60;99.90;;;;;;5051057;28;20188;-72
2023/09/26 09:35:57;;;;;;;6.73;6.00;;;22.90;99.90;;;;;;5049594;28;20196;-72
2023/09/26 09:38:22;;;;;;;7.47;5.70;;;23.20;99.90;;;;;;5050978;28;20421;-72
2023/09/26 09:40:48;;;;;;;7.43;5.57;;;23.30;99.90;;;;;;5051530;28;20940;-72
2023/09/26 09:43:13;;;;;;;10.63;4.90;;;23.30;99.90;;;;;;5050911;28;20208;-72
2023/09/26 09:45:43;;;;;;;8.20;6.03;;;23.40;99.90;;;;;;5050786;28;20206;-72
2023/09/26 09:48:09;;;;;;;9.43;6.17;;;23.80;99.90;;;;;;5049592;28;20183;-72
2023/09/26 09:50:40;;;;;;;9.97;5.20;;;24.10;99.90;;;;;;5050938;28;20873;-72
2023/09/26 09:53:08;;;;;;;6.17;5.57;;;24.70;99.90;;;;;;5050994;28;20407;-73
2023/09/26 09:55:39;;;;;;;10.50;4.50;;;25.00;99.90;;;;;;5050657;28;20505;-73
2023/09/26 09:58:12;;;;;;;5.40;4.50;;;25.00;99.90;;;;;;5050914;28;20433;-72
2023/09/26 10:00:40;;;;;;;7.00;5.00;;;24.80;99.90;;;;;;5050794;28;20426;-72
2023/09/26 10:03:06;;;;;;;5.10;4.20;;;25.60;99.90;;;;;;5050660;28;20459;-72
2023/09/26 10:05:34;;;;;;;7.63;4.40;;;25.80;99.90;;;;;;5049475;28;20498;-72
2023/09/26 10:08:02;;;;;;;5.77;3.80;;;26.30;99.90;;;;;;5050832;28;20477;-72
2023/09/26 10:10:29;;;;;;;8.70;4.20;;;26.30;99.90;;;;;;5049515;28;20428;-72
2023/09/26 10:12:55;;;;;;;5.03;3.30;;;26.30;99.90;;;;;;5050621;28;20413;-72
2023/09/26 10:15:22;;;;;;;6.23;3.50;;;26.50;99.90;;;;;;5049287;28;20964;-73
2023/09/26 10:17:48;;;;;;;5.67;3.03;;;26.30;99.90;;;;;;5050722;28;20170;-73
2023/09/26 10:20:15;;;;;;;3.70;3.40;;;26.30;99.90;;;;;;5050655;28;21010;-73
2023/09/26 10:22:45;;;;;;;3.57;3.10;;;26.70;99.90;;;;;;5049393;28;20464;-73
2023/09/26 10:25:19;;;;;;;6.17;3.27;;;26.70;99.90;;;;;;5050574;28;20450;-73
2023/09/26 10:27:47;;;;;;;6.13;3.30;;;27.10;99.60;;;;;;5050670;28;20824;-72
2023/09/26 10:30:18;;;;;;;5.23;3.30;;;26.90;99.80;;;;;;5053312;28;20476;-73
2023/09/26 10:32:45;;;;;;;7.20;2.93;;;27.10;99.70;;;;;;5052873;28;20444;-73
2023/09/26 10:35:14;;;;;;;4.50;3.30;;;26.80;99.40;;;;;;5052538;28;20974;-72
2023/09/26 10:37:48;;;;;;;6.30;3.50;;;26.60;99.10;;;;;;5053986;28;20449;-73
2023/09/26 10:40:17;;;;;;;4.10;3.00;;;27.20;99.30;;;;;;5053033;28;20765;-73
2023/09/26 10:42:45;;;;;;;6.40;3.13;;;27.20;98.50;;;;;;5036011;28;20429;-72
2023/09/26 10:45:11;;;;;;;4.93;3.23;;;27.60;98.70;;;;;;5053777;28;20450;-72
2023/09/26 10:47:40;;;;;;;3.20;2.90;;;27.30;98.60;;;;;;5053801;28;20418;-72
2023/09/26 10:50:13;;;;;;;6.07;3.27;;;27.20;98.00;;;;;;5052548;28;20413;-72
2023/09/26 10:52:49;;;;;;;3.73;2.90;;;27.30;97.50;;;;;;5053964;28;20781;-72
2023/09/26 10:55:19;;;;;;;3.40;3.10;;;27.20;98.00;;;;;;5053641;28;20430;-73
2023/09/26 10:57:45;;;;;;;7.27;3.30;;;27.20;97.20;;;;;;5052156;28;20449;-73
2023/09/26 11:00:12;;;;;;;4.57;3.10;;;27.20;97.90;;;;;;5053542;28;20424;-73
2023/09/26 11:02:41;;;;;;;3.90;2.90;;;27.60;98.30;;;;;;5053602;28;20175;-73
2023/09/26 11:05:12;;;;;;;5.47;2.63;;;27.50;97.50;;;;;;5051992;28;20530;-72
2023/09/26 11:07:38;;;;;;;3.80;2.73;;;28.10;96.70;;;;;;5052263;28;20425;-72
2023/09/26 11:10:05;;;;;;;3.40;2.77;;;28.00;96.40;;;;;;5053397;28;20415;-73
2023/09/26 11:12:34;;;;;;;5.73;3.30;;;28.00;96.90;;;;;;5053309;28;20408;-72
2023/09/26 11:15:00;;;;;;;7.93;3.60;;;27.80;96.80;;;;;;5053166;28;20445;-72
2023/09/26 11:17:29;;;;;;;4.87;3.20;;;27.40;96.40;;;;;;5035395;28;20434;-73
2023/09/26 11:20:05;;;;;;;4.63;3.50;;;27.70;96.30;;;;;;5051838;28;20185;-73
2023/09/26 11:22:43;;;;;;;6.27;2.87;;;27.50;96.30;;;;;;5052187;28;20480;-72
2023/09/26 11:25:09;;;;;;;5.90;2.67;;;27.20;97.30;;;;;;5053015;28;20466;-72
2023/09/26 11:27:43;;;;;;;3.93;3.30;;;26.90;97.50;;;;;;5053082;28;20422;-73
2023/09/26 11:30:13;;;;;;;2.87;2.50;;;26.90;96.50;;;;;;5053033;28;20915;-73
2023/09/26 11:32:48;;;;;;;3.83;2.53;;;26.80;97.80;;;;;;5053012;28;21021;-73
2023/09/26 11:35:15;;;;;;;6.80;2.97;;;27.10;96.80;;;;;;5052878;28;20807;-72
2023/09/26 11:37:41;;;;;;;3.40;2.77;;;27.00;97.00;;;;;;5052676;28;20441;-73
2023/09/26 11:40:11;;;;;;;2.43;2.23;;;26.80;97.10;;;;;;5051283;28;20418;-73
2023/09/26 11:42:47;;;;;;;3.20;2.40;;;27.00;97.50;;;;;;5052766;28;20222;-73
2023/09/26 11:45:23;;;;;;;5.80;2.90;;;26.90;97.10;;;;;;5052656;28;20478;-73
2023/09/26 11:47:52;;;;;;;3.70;2.60;;;26.80;98.20;;;;;;5052655;28;20413;-72
2023/09/26 11:50:18;;;;;;;7.53;2.57;;;26.70;98.80;;;;;;5052610;28;20406;-72
2023/09/26 11:52:44;;;;;;;4.73;2.53;;;26.60;99.50;;;;;;5052610;28;20444;-72
2023/09/26 11:55:16;;;;;;;4.60;3.00;;;26.50;98.60;;;;;;5051104;28;20430;-73
2023/09/26 11:57:43;;;;;;;3.30;2.70;;;26.10;97.70;;;;;;5052424;28;20470;-72
2023/09/26 12:00:11;;;;;;;5.80;2.77;;;26.40;98.10;;;;;;5052472;28;20448;-73
2023/09/26 12:02:42;;;;;;;3.43;2.20;;;26.20;99.70;;;;;;5052358;28;20426;-73
2023/09/26 12:05:08;;;;;;;3.27;1.90;;;26.20;99.90;;;;;;5051048;28;20474;-73
2023/09/26 12:07:35;;;;;;;2.63;2.40;;;26.20;99.90;;;;;;5052329;28;20461;-72
2023/09/26 12:10:00;;;;;;;5.67;2.07;;;26.30;99.90;;;;;;5052222;28;20471;-73
2023/09/26 12:12:26;;;;;;;4.30;2.40;;;26.30;99.90;;;;;;5052260;28;20795;-72
2023/09/26 12:15:24;;;;;;;4.00;2.90;;;26.30;99.90;;;;;;5052105;28;20222;-72
2023/09/26 12:17:56;;;;;;;3.90;2.07;;;26.30;99.50;;;;;;5050716;28;20287;-72
2023/09/26 12:20:24;;;;;;;7.50;2.53;;;26.40;99.00;;;;;;5052465;28;20743;-72
2023/09/26 12:22:54;;;;;;;8.07;2.20;;;26.30;99.30;;;;;;5051836;28;20953;-73
2023/09/26 12:25:24;;;;;;;4.60;2.13;;;26.20;99.60;;;;;;5051912;28;20445;-73
2023/09/26 12:27:53;;;;;;;3.80;2.63;;;26.30;99.40;;;;;;5052003;28;20449;-73
2023/09/26 12:30:19;;;;;;;5.97;2.47;;;26.20;98.60;;;;;;5052088;28;20455;-72
2023/09/26 12:32:45;;;;;;;3.67;2.10;;;26.10;98.60;;;;;;5050513;28;20472;-73
2023/09/26 12:35:11;;;;;;;3.00;2.03;;;26.10;99.60;;;;;;5051696;28;20811;-72
2023/09/26 12:37:37;;;;;;;4.10;2.30;;;26.10;99.90;;;;;;5050333;28;20453;-72